Time;durP1;ratioP1;P1;durP2;ratioP2;P2;SDS_P1;SDS_P2;PMS_P1;PMS_P2;Temp;Humidity;BMP_temperature;BMP_pressure;BME280_temperature;BME280_humidity;BME280_pressure;Samples;Min_cycle;Max_cycle;Signal;HPM_P1;HPM_P2
2022/02/19 00:02:46;;;;;;;1999.90;999.90;;;6.70;99.90;;;;;;6171092;23;20299;-77
2022/02/19 00:05:15;;;;;;;1827.73;146.90;;;7.10;99.90;;;;;;6154723;23;20500;-77
2022/02/19 00:07:44;;;;;;;1999.90;515.27;;;7.00;99.90;;;;;;6175306;23;20405;-77
2022/02/19 00:10:12;;;;;;;1999.90;161.13;;;6.90;99.90;;;;;;6140433;23;20452;-77
2022/02/19 00:12:43;;;;;;;1999.90;316.00;;;6.90;99.90;;;;;;6166003;23;20737;-77
2022/02/19 00:15:11;;;;;;;1999.90;259.93;;;6.90;99.90;;;;;;6138667;23;20417;-77
2022/02/19 00:17:41;;;;;;;744.43;62.73;;;6.90;99.90;;;;;;6138931;23;20744;-77
2022/02/19 00:20:13;;;;;;;1046.70;70.17;;;6.90;99.90;;;;;;6139170;23;20459;-77
2022/02/19 00:22:41;;;;;;;1435.87;118.70;;;6.90;99.90;;;;;;6139510;23;20443;-77
2022/02/19 00:25:10;;;;;;;993.23;105.73;;;6.90;99.90;;;;;;6175006;23;20482;-77
2022/02/19 00:27:38;;;;;;;1512.57;95.90;;;6.90;99.90;;;;;;6138661;23;20489;-77
2022/02/19 00:30:08;;;;;;;651.97;51.40;;;6.90;99.90;;;;;;6174480;23;20487;-77
2022/02/19 00:32:36;;;;;;;891.17;102.63;;;6.90;99.90;;;;;;6139096;23;20803;-77
2022/02/19 00:35:05;;;;;;;1463.07;111.97;;;6.90;99.90;;;;;;6138806;23;20441;-77
2022/02/19 00:37:34;;;;;;;1999.90;251.03;;;6.90;99.90;;;;;;6138340;23;20759;-77
2022/02/19 00:40:04;;;;;;;1999.90;402.47;;;6.80;99.90;;;;;;6138291;23;20959;-78
2022/02/19 00:42:32;;;;;;;1999.90;327.40;;;6.80;99.90;;;;;;6139087;23;20423;-77
2022/02/19 00:45:00;;;;;;;1999.90;615.03;;;6.80;99.90;;;;;;6138226;23;20792;-77
2022/02/19 00:47:31;;;;;;;1999.90;619.97;;;6.80;99.90;;;;;;6138068;23;20454;-77
2022/02/19 00:49:59;;;;;;;1999.90;545.83;;;6.70;99.90;;;;;;6138420;23;20476;-78
2022/02/19 00:52:27;;;;;;;1999.90;438.33;;;6.60;99.90;;;;;;6139418;23;20790;-77
2022/02/19 00:54:57;;;;;;;1999.90;794.07;;;6.60;99.90;;;;;;6138491;23;20482;-77
2022/02/19 00:57:25;;;;;;;1999.90;343.33;;;6.60;99.90;;;;;;6139031;23;20446;-78
2022/02/19 00:59:53;;;;;;;1999.90;393.07;;;6.50;99.90;;;;;;6136303;23;20455;-78
2022/02/19 01:02:22;;;;;;;1999.90;327.80;;;6.40;99.90;;;;;;6103918;23;20453;-77
2022/02/19 01:05:09;;;;;;;1999.90;316.17;;;6.40;99.90;;;;;;6102303;23;20410;-77
2022/02/19 01:07:38;;;;;;;1999.90;332.47;;;6.30;99.90;;;;;;6102320;23;20458;-77
2022/02/19 01:10:09;;;;;;;1999.90;312.37;;;6.30;99.90;;;;;;6128337;23;20445;-77
2022/02/19 01:12:38;;;;;;;1999.90;795.67;;;6.30;99.90;;;;;;6102286;23;20416;-77
2022/02/19 01:15:11;;;;;;;1999.90;483.80;;;6.20;99.90;;;;;;6102412;23;20472;-77
2022/02/19 01:17:39;;;;;;;1999.90;352.10;;;6.20;99.90;;;;;;6102303;23;20505;-77
2022/02/19 01:20:10;;;;;;;1999.90;395.97;;;6.20;99.90;;;;;;6102028;23;20428;-77
2022/02/19 01:22:41;;;;;;;1999.90;497.87;;;6.20;99.90;;;;;;6102200;23;20402;-78
2022/02/19 01:25:13;;;;;;;1999.90;258.63;;;6.20;99.90;;;;;;6101792;23;20718;-77
2022/02/19 01:27:51;;;;;;;1999.90;493.93;;;6.20;99.90;;;;;;6102871;23;20803;-77
2022/02/19 01:30:19;;;;;;;1999.90;262.87;;;6.20;99.90;;;;;;6102448;23;20500;-78
2022/02/19 01:32:51;;;;;;;1999.90;288.60;;;6.10;99.90;;;;;;6102356;23;20929;-77
2022/02/19 01:35:19;;;;;;;1938.47;149.60;;;6.10;99.90;;;;;;6101823;23;20805;-77
2022/02/19 01:37:48;;;;;;;1999.90;999.90;;;6.00;99.90;;;;;;6102016;23;20796;-77
2022/02/19 01:40:21;;;;;;;1689.40;433.30;;;6.00;99.90;;;;;;6101831;23;20437;-77
2022/02/19 01:42:50;;;;;;;1758.57;701.60;;;5.90;99.90;;;;;;6102048;23;20406;-77
2022/02/19 01:45:21;;;;;;;1999.90;999.90;;;5.80;99.90;;;;;;6101931;23;20905;-77
2022/02/19 01:47:51;;;;;;;1999.90;999.90;;;5.80;99.90;;;;;;6102640;23;20500;-77
2022/02/19 01:50:22;;;;;;;1999.90;999.90;;;5.70;99.90;;;;;;6103493;23;21029;-78
2022/02/19 01:52:51;;;;;;;1999.90;999.90;;;5.60;99.90;;;;;;6138448;23;20398;-77
2022/02/19 01:55:37;;;;;;;1999.90;999.90;;;5.60;99.90;;;;;;6101958;23;20893;-77
2022/02/19 01:58:13;;;;;;;1844.90;445.33;;;5.50;99.90;;;;;;6101927;23;20908;-77
2022/02/19 02:01:03;;;;;;;1999.90;999.90;;;5.40;99.90;;;;;;6113544;23;20448;-77
2022/02/19 02:03:50;;;;;;;1902.50;192.50;;;5.30;99.90;;;;;;6137313;23;20440;-77
2022/02/19 02:06:26;;;;;;;1999.90;383.97;;;5.20;99.90;;;;;;6101432;23;20421;-77
2022/02/19 02:08:59;;;;;;;1569.83;182.67;;;5.10;99.90;;;;;;6125974;23;20413;-77
2022/02/19 02:11:34;;;;;;;1843.87;192.67;;;5.00;99.90;;;;;;6101351;23;20520;-77
2022/02/19 02:14:03;;;;;;;1999.90;631.70;;;5.00;99.90;;;;;;6101116;23;20409;-77
2022/02/19 02:16:44;;;;;;;1999.90;999.90;;;5.00;99.90;;;;;;6101805;23;20447;-77
2022/02/19 02:19:15;;;;;;;1999.90;999.90;;;4.90;99.90;;;;;;6101324;23;20409;-77
2022/02/19 02:22:00;;;;;;;1586.57;130.37;;;4.90;99.90;;;;;;6102633;23;20456;-77
2022/02/19 02:24:32;;;;;;;1999.90;283.23;;;4.90;99.90;;;;;;6101354;23;20448;-77
2022/02/19 02:27:07;;;;;;;1999.90;227.03;;;4.90;99.90;;;;;;6102138;23;20405;-77
2022/02/19 02:29:41;;;;;;;1999.90;209.10;;;4.90;99.90;;;;;;6101410;23;20975;-77
2022/02/19 02:32:10;;;;;;;1698.00;703.23;;;4.90;99.90;;;;;;6102129;23;20445;-77
2022/02/19 02:34:48;;;;;;;1999.90;589.43;;;4.90;99.90;;;;;;6101195;23;20413;-77
2022/02/19 02:37:21;;;;;;;1999.90;458.83;;;4.90;99.90;;;;;;6101218;23;20500;-77
2022/02/19 02:39:51;;;;;;;1999.90;209.27;;;4.90;99.90;;;;;;6101243;23;20800;-77
2022/02/19 02:42:22;;;;;;;1999.90;999.90;;;4.90;99.90;;;;;;6101333;23;20419;-77
2022/02/19 02:44:51;;;;;;;1999.90;999.90;;;5.00;99.90;;;;;;6101523;23;20964;-77
2022/02/19 02:47:47;;;;;;;1999.90;200.27;;;5.00;99.90;;;;;;6101420;23;20416;-77
2022/02/19 02:50:15;;;;;;;1999.90;999.90;;;5.00;99.90;;;;;;6136708;23;20825;-76
2022/02/19 02:52:47;;;;;;;1999.90;527.40;;;5.00;99.90;;;;;;6100956;23;20506;-77
2022/02/19 02:55:15;;;;;;;1999.90;197.53;;;5.00;99.90;;;;;;6101023;23;20433;-76
2022/02/19 02:57:44;;;;;;;1999.90;820.60;;;5.00;99.90;;;;;;6101262;23;20421;-77
2022/02/19 03:00:15;;;;;;;1712.50;427.47;;;5.00;99.90;;;;;;6107387;23;20486;-77
2022/02/19 03:02:48;;;;;;;1999.90;999.90;;;5.00;99.90;;;;;;6130383;23;20895;-76
2022/02/19 03:05:18;;;;;;;1999.90;625.03;;;4.90;99.90;;;;;;6130217;23;20420;-76
2022/02/19 03:07:48;;;;;;;1649.67;414.50;;;4.90;99.90;;;;;;6130388;23;20463;-77
2022/02/19 03:10:18;;;;;;;1999.90;742.63;;;4.90;99.90;;;;;;6130046;23;20440;-77
2022/02/19 03:12:47;;;;;;;1999.90;999.90;;;4.90;99.90;;;;;;6130213;23;21030;-77
2022/02/19 03:15:19;;;;;;;1999.90;999.90;;;4.90;99.90;;;;;;6130250;23;20915;-77
2022/02/19 03:17:50;;;;;;;1980.03;722.50;;;4.90;99.90;;;;;;6130254;23;20416;-77
2022/02/19 03:20:22;;;;;;;1989.73;187.57;;;4.90;99.90;;;;;;6130196;23;20440;-77
2022/02/19 03:22:53;;;;;;;1999.90;999.90;;;4.90;99.90;;;;;;6130831;23;20417;-77
2022/02/19 03:25:22;;;;;;;1282.30;83.07;;;4.80;99.90;;;;;;6129912;23;20416;-76
2022/02/19 03:27:56;;;;;;;1999.90;717.83;;;4.80;99.90;;;;;;6130181;23;20504;-77
2022/02/19 03:30:30;;;;;;;1999.90;999.90;;;4.80;99.90;;;;;;6130102;23;20774;-77
2022/02/19 03:33:03;;;;;;;1999.90;999.90;;;4.80;99.90;;;;;;6130473;23;20430;-76
2022/02/19 03:35:32;;;;;;;1999.90;999.90;;;4.80;99.90;;;;;;6130018;23;20420;-77
2022/02/19 03:38:05;;;;;;;1259.07;381.97;;;4.80;99.90;;;;;;6130463;23;20427;-76
2022/02/19 03:40:46;;;;;;;1999.90;495.60;;;4.80;99.90;;;;;;6129924;23;20436;-77
2022/02/19 03:43:14;;;;;;;1988.07;735.27;;;4.80;99.90;;;;;;6130950;23;20503;-77
2022/02/19 03:45:45;;;;;;;1999.90;999.90;;;4.80;99.90;;;;;;6130765;23;20420;-77
2022/02/19 03:48:43;;;;;;;1999.90;756.87;;;4.80;99.90;;;;;;6132266;23;20456;-76
2022/02/19 03:51:13;;;;;;;1816.30;432.13;;;4.80;99.90;;;;;;6130312;23;20946;-77
2022/02/19 03:53:45;;;;;;;1999.90;724.83;;;4.80;99.90;;;;;;6130351;23;20440;-77
2022/02/19 03:56:18;;;;;;;1821.17;701.30;;;4.90;99.90;;;;;;6130080;23;20904;-77
2022/02/19 03:58:48;;;;;;;1999.90;999.90;;;4.90;99.90;;;;;;6130366;23;20408;-76
2022/02/19 04:01:18;;;;;;;1866.17;721.17;;;4.90;99.90;;;;;;6129968;23;20452;-76
2022/02/19 04:03:49;;;;;;;1999.90;408.10;;;4.90;99.90;;;;;;6130320;23;20900;-76
2022/02/19 04:06:19;;;;;;;1929.13;454.03;;;4.90;99.90;;;;;;6129840;23;20427;-76
2022/02/19 04:08:48;;;;;;;1858.70;190.10;;;5.00;99.90;;;;;;6129959;23;20413;-76
2022/02/19 04:11:18;;;;;;;1999.90;270.33;;;5.00;99.90;;;;;;6129711;23;20499;-77
2022/02/19 04:13:47;;;;;;;1999.90;999.90;;;5.00;99.90;;;;;;6129723;23;20440;-76
2022/02/19 04:16:20;;;;;;;1999.90;999.90;;;5.00;99.90;;;;;;6130615;23;20491;-78
2022/02/19 04:18:51;;;;;;;1999.90;745.30;;;5.00;99.90;;;;;;6130258;23;20471;-77
2022/02/19 04:21:21;;;;;;;1999.90;999.90;;;5.10;99.90;;;;;;6129483;23;20986;-77
2022/02/19 04:23:50;;;;;;;1999.90;773.13;;;5.10;99.90;;;;;;6129730;23;20482;-76
2022/02/19 04:26:19;;;;;;;1999.90;477.70;;;5.10;99.90;;;;;;6131179;23;20420;-76
2022/02/19 04:28:50;;;;;;;1999.90;293.67;;;5.10;99.90;;;;;;6130045;23;20475;-76
2022/02/19 04:31:24;;;;;;;1999.90;765.20;;;5.10;99.90;;;;;;6129625;23;20432;-76
2022/02/19 04:34:11;;;;;;;1999.90;200.73;;;5.10;99.90;;;;;;6129715;23;20411;-76
2022/02/19 04:36:40;;;;;;;1965.73;226.27;;;5.10;99.90;;;;;;6130173;23;20426;-76
2022/02/19 04:39:16;;;;;;;1999.90;999.90;;;5.10;99.90;;;;;;6131630;23;20420;-76
2022/02/19 04:41:45;;;;;;;1999.90;728.70;;;5.10;99.90;;;;;;6131068;23;20479;-76
2022/02/19 04:44:17;;;;;;;1999.90;999.90;;;5.10;99.90;;;;;;6132538;23;20445;-76
2022/02/19 04:46:46;;;;;;;1999.90;477.90;;;5.10;99.90;;;;;;6131418;23;20424;-76
2022/02/19 04:49:14;;;;;;;1999.90;731.97;;;5.10;99.90;;;;;;6131513;23;20462;-76
2022/02/19 04:51:47;;;;;;;1999.90;728.10;;;5.10;99.90;;;;;;6131321;23;20990;-76
2022/02/19 04:54:19;;;;;;;1999.90;999.90;;;5.20;99.90;;;;;;6131635;23;20424;-76
2022/02/19 04:56:48;;;;;;;1999.90;272.43;;;5.20;99.90;;;;;;6132876;23;20499;-76
2022/02/19 04:59:18;;;;;;;1999.90;999.90;;;5.20;99.90;;;;;;6131443;23;20416;-76
2022/02/19 05:01:48;;;;;;;1999.90;999.90;;;5.20;99.90;;;;;;6131461;23;20455;-76
2022/02/19 05:04:19;;;;;;;1999.90;999.90;;;5.20;99.90;;;;;;6131416;23;20416;-76
2022/02/19 05:06:58;;;;;;;1999.90;721.33;;;5.20;99.90;;;;;;6131164;23;20467;-76
2022/02/19 05:09:27;;;;;;;1999.90;999.90;;;5.20;99.90;;;;;;6131469;23;20475;-76
2022/02/19 05:12:01;;;;;;;1778.33;426.80;;;5.20;99.90;;;;;;6131177;23;20498;-76
2022/02/19 05:14:31;;;;;;;1999.90;999.90;;;5.20;99.90;;;;;;6131383;23;20919;-76
2022/02/19 05:17:06;;;;;;;1999.90;999.90;;;5.20;99.90;;;;;;6131246;23;20416;-77
2022/02/19 05:19:41;;;;;;;1999.90;726.87;;;5.20;99.90;;;;;;6131307;23;20408;-76
2022/02/19 05:22:09;;;;;;;1999.90;999.90;;;5.20;99.90;;;;;;6131093;23;20444;-77
2022/02/19 05:24:44;;;;;;;1842.70;136.20;;;5.20;99.90;;;;;;6131306;23;20721;-77
2022/02/19 05:27:19;;;;;;;1999.90;999.90;;;5.20;99.90;;;;;;6130774;23;20416;-77
2022/02/19 05:29:51;;;;;;;1772.33;424.07;;;5.20;99.90;;;;;;6131252;23;20595;-77
2022/02/19 05:32:24;;;;;;;1999.90;999.90;;;5.20;99.90;;;;;;6130381;23;20413;-76
2022/02/19 05:35:13;;;;;;;1999.90;999.90;;;5.20;99.90;;;;;;6156599;23;20408;-76
2022/02/19 05:37:42;;;;;;;1999.90;999.90;;;5.20;99.90;;;;;;6131144;23;20424;-77
2022/02/19 05:40:13;;;;;;;1909.50;173.13;;;5.20;99.90;;;;;;6131276;23;20417;-76
2022/02/19 05:42:46;;;;;;;1999.90;999.90;;;5.20;99.90;;;;;;6131016;23;20442;-77
2022/02/19 05:45:21;;;;;;;1999.90;999.90;;;5.20;99.90;;;;;;6131274;23;20408;-76
2022/02/19 05:47:52;;;;;;;1999.90;999.90;;;5.20;99.90;;;;;;6131750;23;20417;-77
2022/02/19 05:50:32;;;;;;;1935.30;137.40;;;5.20;99.90;;;;;;6130976;23;20435;-77
2022/02/19 05:53:08;;;;;;;1999.90;999.90;;;5.20;99.90;;;;;;6130984;23;20464;-76
2022/02/19 05:55:43;;;;;;;1999.90;999.90;;;5.20;99.90;;;;;;6131032;23;20415;-77
2022/02/19 05:58:13;;;;;;;1999.90;999.90;;;5.20;99.90;;;;;;6130994;23;20416;-77
2022/02/19 06:00:52;;;;;;;1999.90;730.73;;;5.10;99.90;;;;;;6130642;23;20970;-77
2022/02/19 06:03:24;;;;;;;1999.90;295.87;;;5.10;99.90;;;;;;6130861;23;20409;-77
2022/02/19 06:05:56;;;;;;;1999.90;769.23;;;5.10;99.90;;;;;;6130835;23;20923;-77
2022/02/19 06:08:28;;;;;;;1999.90;735.27;;;5.00;99.90;;;;;;6131559;23;20503;-77
2022/02/19 06:11:00;;;;;;;1999.90;999.90;;;5.00;99.90;;;;;;6130870;23;20828;-77
2022/02/19 06:13:37;;;;;;;1838.80;720.10;;;4.90;99.90;;;;;;6131017;23;20432;-77
2022/02/19 06:16:08;;;;;;;1999.90;999.90;;;4.90;99.90;;;;;;6130565;23;20765;-77
2022/02/19 06:18:43;;;;;;;1999.90;828.97;;;4.80;99.90;;;;;;6131825;23;20455;-77
2022/02/19 06:21:12;;;;;;;1999.90;506.03;;;4.80;99.90;;;;;;6130648;23;20752;-77
2022/02/19 06:23:45;;;;;;;1999.90;999.90;;;4.80;99.90;;;;;;6130720;23;20744;-77
2022/02/19 06:26:16;;;;;;;1999.90;476.93;;;4.70;99.90;;;;;;6132251;23;20412;-77
2022/02/19 06:29:04;;;;;;;1987.57;255.50;;;4.70;99.90;;;;;;6156022;23;20417;-77
2022/02/19 06:31:35;;;;;;;1999.90;999.90;;;4.70;99.90;;;;;;6131692;23;20436;-76
2022/02/19 06:34:04;;;;;;;1814.70;711.43;;;4.60;99.90;;;;;;6130267;23;20770;-77
2022/02/19 06:36:33;;;;;;;1999.90;300.87;;;4.60;99.90;;;;;;6131104;23;20420;-76
2022/02/19 06:39:05;;;;;;;1999.90;999.90;;;4.60;99.90;;;;;;6130664;23;20409;-76
2022/02/19 06:41:37;;;;;;;1999.90;258.47;;;4.60;99.90;;;;;;6130438;23;20462;-76
2022/02/19 06:44:10;;;;;;;1999.90;308.43;;;4.50;99.90;;;;;;6130535;23;20479;-77
2022/02/19 06:46:42;;;;;;;1999.90;298.40;;;4.50;99.90;;;;;;6129758;23;20405;-77
2022/02/19 06:49:11;;;;;;;1999.90;361.67;;;4.40;99.90;;;;;;6130329;23;20455;-76
2022/02/19 06:51:45;;;;;;;1999.90;399.67;;;4.40;99.90;;;;;;6130506;23;20483;-77
2022/02/19 06:54:13;;;;;;;1999.90;321.90;;;4.30;99.90;;;;;;6130548;23;20821;-77
2022/02/19 06:56:43;;;;;;;1999.90;251.00;;;4.30;99.90;;;;;;6130553;23;20428;-77
2022/02/19 06:59:11;;;;;;;1999.90;281.83;;;4.10;99.90;;;;;;6130434;23;20431;-77
2022/02/19 07:01:40;;;;;;;1999.90;258.60;;;4.10;99.90;;;;;;6130626;23;20535;-77
2022/02/19 07:04:15;;;;;;;1999.90;479.87;;;4.10;99.90;;;;;;6131253;23;20412;-78
2022/02/19 07:06:53;;;;;;;1999.90;304.27;;;4.10;99.90;;;;;;6170084;23;20389;-78
2022/02/19 07:09:24;;;;;;;1999.90;389.97;;;3.90;99.90;;;;;;6134831;23;20420;-78
2022/02/19 07:11:56;;;;;;;1999.90;363.93;;;3.90;99.90;;;;;;6131823;23;20943;-77
2022/02/19 07:14:26;;;;;;;1999.90;359.57;;;3.80;99.90;;;;;;6133628;23;20443;-78
2022/02/19 07:17:04;;;;;;;1577.20;186.53;;;3.80;99.90;;;;;;6132648;23;20450;-78
2022/02/19 07:19:34;;;;;;;1355.33;163.97;;;3.60;99.90;;;;;;6132056;23;20422;-77
2022/02/19 07:22:04;;;;;;;1592.07;231.67;;;3.60;99.90;;;;;;6132377;23;20439;-77
2022/02/19 07:24:35;;;;;;;1204.83;120.43;;;3.50;99.90;;;;;;6131470;23;20417;-78
2022/02/19 07:27:05;;;;;;;1999.90;460.60;;;3.50;99.90;;;;;;6131071;23;20436;-77
2022/02/19 07:29:36;;;;;;;1999.90;443.20;;;3.40;99.90;;;;;;6132833;23;20416;-78
2022/02/19 07:32:08;;;;;;;1999.90;431.83;;;3.40;99.90;;;;;;6131683;23;20445;-78
2022/02/19 07:34:39;;;;;;;1999.90;441.07;;;3.40;99.90;;;;;;6130477;23;20442;-77
2022/02/19 07:37:08;;;;;;;1999.90;616.50;;;3.40;99.90;;;;;;6157370;23;20736;-77
2022/02/19 07:39:36;;;;;;;1999.90;406.20;;;3.40;99.90;;;;;;6133020;23;20455;-78
2022/02/19 07:42:11;;;;;;;1999.90;522.07;;;3.40;99.90;;;;;;6133866;23;20442;-78
2022/02/19 07:44:57;;;;;;;1999.90;600.53;;;3.40;99.90;;;;;;6170378;23;20443;-78
2022/02/19 07:47:52;;;;;;;1999.90;317.37;;;3.40;99.90;;;;;;6159783;23;20420;-78
2022/02/19 07:59:55;;;;;;;1999.90;502.00;;;3.60;99.90;;;;;;6128171;23;20410;-77
2022/02/19 08:02:24;;;;;;;1999.90;830.50;;;3.70;99.90;;;;;;6103680;23;20818;-78
2022/02/19 08:04:52;;;;;;;1999.90;383.37;;;3.70;99.90;;;;;;6101187;23;20444;-77
2022/02/19 08:07:21;;;;;;;1999.90;999.90;;;3.80;99.90;;;;;;6102193;23;20425;-77
2022/02/19 08:09:50;;;;;;;1999.90;999.90;;;3.90;99.90;;;;;;6102098;23;20478;-77
2022/02/19 08:12:19;;;;;;;1999.90;587.70;;;3.90;99.90;;;;;;6104478;23;20519;-78
2022/02/19 08:14:47;;;;;;;1999.90;655.97;;;4.00;99.90;;;;;;6131722;23;20494;-78
2022/02/19 08:17:17;;;;;;;1999.90;999.90;;;4.20;99.90;;;;;;6104236;23;20412;-78
2022/02/19 08:19:45;;;;;;;1999.90;999.90;;;4.30;99.90;;;;;;6108610;23;20908;-78
2022/02/19 08:22:13;;;;;;;1999.90;183.03;;;4.40;99.90;;;;;;6110587;23;20465;-78
2022/02/19 08:24:41;;;;;;;1999.90;930.37;;;4.40;99.90;;;;;;6108350;23;20417;-78
2022/02/19 08:27:10;;;;;;;1999.90;250.13;;;4.50;99.90;;;;;;6106551;23;20420;-78
2022/02/19 08:29:39;;;;;;;1999.90;493.43;;;4.60;99.90;;;;;;6109024;23;20446;-78
2022/02/19 08:32:08;;;;;;;1999.90;827.73;;;4.60;99.90;;;;;;6144684;23;20449;-78
2022/02/19 08:34:36;;;;;;;1999.90;999.90;;;4.70;99.90;;;;;;6108940;23;20520;-79
2022/02/19 08:37:05;;;;;;;1999.90;458.90;;;4.80;99.90;;;;;;6107418;23;20412;-78
2022/02/19 08:39:33;;;;;;;1999.90;570.53;;;4.90;99.90;;;;;;6132557;23;20417;-78
2022/02/19 08:42:02;;;;;;;1999.90;999.90;;;5.00;99.90;;;;;;6106239;23;20441;-78
2022/02/19 08:44:30;;;;;;;1999.90;999.90;;;5.00;99.90;;;;;;6107256;23;20444;-78
2022/02/19 08:47:00;;;;;;;1999.90;999.90;;;5.00;99.90;;;;;;6141405;23;20397;-78
2022/02/19 08:49:29;;;;;;;1999.90;999.90;;;5.10;99.90;;;;;;6106606;23;20823;-78
2022/02/19 08:52:22;;;;;;;1964.03;752.20;;;5.10;99.90;;;;;;6141534;23;20421;-78
2022/02/19 08:55:03;;;;;;;1999.90;999.90;;;5.10;99.90;;;;;;6105780;23;20940;-78
2022/02/19 08:57:32;;;;;;;1999.90;999.90;;;5.10;99.90;;;;;;6106099;23;20409;-78
2022/02/19 09:00:00;;;;;;;1999.90;999.90;;;5.10;99.90;;;;;;6105881;23;20444;-78
2022/02/19 09:02:29;;;;;;;1999.90;458.20;;;5.20;99.90;;;;;;6106874;23;20897;-78
2022/02/19 09:04:58;;;;;;;1999.90;999.90;;;5.20;99.90;;;;;;6107003;23;20445;-78
2022/02/19 09:07:26;;;;;;;1999.90;999.90;;;5.30;99.90;;;;;;6108524;23;20488;-78
2022/02/19 09:09:55;;;;;;;1999.90;999.90;;;5.30;99.90;;;;;;6107220;23;20425;-78
2022/02/19 09:12:23;;;;;;;1854.23;516.97;;;5.40;99.90;;;;;;6106343;23;20421;-78
2022/02/19 09:14:51;;;;;;;1999.90;999.90;;;5.50;99.90;;;;;;6107080;23;20444;-78
2022/02/19 09:17:19;;;;;;;1999.90;999.90;;;5.50;99.90;;;;;;6107164;23;20453;-78
2022/02/19 09:19:49;;;;;;;1999.90;999.90;;;5.60;99.90;;;;;;6106261;23;20417;-78
2022/02/19 09:22:18;;;;;;;1657.70;465.67;;;5.60;99.90;;;;;;6142569;23;20995;-78
2022/02/19 09:24:47;;;;;;;1801.90;521.63;;;5.60;99.90;;;;;;6106516;23;20424;-79
2022/02/19 09:27:16;;;;;;;1999.90;999.90;;;5.70;99.90;;;;;;6142838;23;20448;-79
2022/02/19 09:29:44;;;;;;;1783.57;522.33;;;5.70;99.90;;;;;;6107422;23;20905;-78
2022/02/19 09:32:13;;;;;;;1813.13;542.90;;;5.70;99.90;;;;;;6106196;23;20473;-78
2022/02/19 09:34:41;;;;;;;1355.57;437.63;;;5.80;99.90;;;;;;6106764;23;20489;-78
2022/02/19 09:37:11;;;;;;;1999.90;759.63;;;5.80;99.90;;;;;;6106781;23;20417;-78
2022/02/19 09:39:39;;;;;;;1999.90;999.90;;;5.80;99.90;;;;;;6142540;23;20412;-78
2022/02/19 09:42:08;;;;;;;1999.90;999.90;;;5.70;99.90;;;;;;6106950;23;20441;-78
2022/02/19 09:44:37;;;;;;;1999.90;999.90;;;5.70;99.90;;;;;;6106414;23;20441;-78
2022/02/19 09:47:06;;;;;;;1999.90;999.90;;;5.70;99.90;;;;;;6142256;23;20453;-78
2022/02/19 09:49:36;;;;;;;1999.90;999.90;;;5.80;99.90;;;;;;6107391;23;20508;-78
2022/02/19 09:52:05;;;;;;;1999.90;999.90;;;5.90;99.90;;;;;;6144209;23;20421;-78
2022/02/19 09:54:34;;;;;;;1011.30;381.97;;;6.00;99.90;;;;;;6107877;23;20760;-78
2022/02/19 09:57:03;;;;;;;1999.90;999.90;;;6.00;99.90;;;;;;6134902;23;20409;-78
2022/02/19 09:59:31;;;;;;;1613.20;435.10;;;6.00;99.90;;;;;;6107376;23;20452;-78
2022/02/19 10:02:01;;;;;;;1999.90;999.90;;;6.10;99.90;;;;;;6159156;23;20451;-78
2022/02/19 10:04:29;;;;;;;1999.90;999.90;;;6.10;99.90;;;;;;6173720;23;20480;-78
2022/02/19 10:07:13;;;;;;;1256.70;438.87;;;6.10;99.90;;;;;;6173196;23;20399;-78
2022/02/19 10:09:43;;;;;;;1749.47;695.37;;;6.20;99.90;;;;;;6135219;23;20481;-78
2022/02/19 10:12:13;;;;;;;1051.17;386.53;;;6.20;99.90;;;;;;6134034;23;20439;-78
2022/02/19 10:14:44;;;;;;;666.77;92.73;;;6.20;99.90;;;;;;6134974;23;20425;-78
2022/02/19 10:17:17;;;;;;;435.80;44.87;;;6.30;99.90;;;;;;6161497;23;20463;-78
2022/02/19 10:19:54;;;;;;;406.40;86.80;;;6.30;99.90;;;;;;6159608;23;20443;-78
2022/02/19 10:22:25;;;;;;;610.67;143.80;;;6.30;99.90;;;;;;6158918;23;20528;-78
2022/02/19 10:24:57;;;;;;;1066.77;417.20;;;6.40;99.90;;;;;;6135539;23;20460;-78
2022/02/19 10:27:40;;;;;;;190.23;60.00;;;6.50;99.90;;;;;;6135722;23;20447;-78
2022/02/19 10:30:10;;;;;;;851.60;173.27;;;6.50;99.90;;;;;;6135794;23;20409;-78
2022/02/19 10:32:53;;;;;;;697.13;145.60;;;6.50;99.90;;;;;;6159719;23;20455;-78
2022/02/19 10:35:27;;;;;;;680.67;91.93;;;6.60;99.90;;;;;;6134199;23;20997;-78
2022/02/19 10:37:56;;;;;;;535.10;143.07;;;6.60;99.90;;;;;;6135151;23;20416;-78
2022/02/19 10:40:36;;;;;;;657.97;195.33;;;6.70;99.90;;;;;;6170479;23;20511;-78
2022/02/19 10:43:06;;;;;;;272.67;82.53;;;6.70;99.90;;;;;;6135548;23;20489;-78
2022/02/19 10:45:36;;;;;;;1377.47;271.87;;;6.80;99.90;;;;;;6163159;23;20428;-78
2022/02/19 10:48:15;;;;;;;1264.13;239.33;;;6.80;99.90;;;;;;6172314;23;20793;-77
2022/02/19 10:50:43;;;;;;;1974.23;402.40;;;6.80;99.90;;;;;;6135161;23;20524;-78
2022/02/19 10:53:21;;;;;;;820.27;218.13;;;6.80;99.90;;;;;;6135432;23;20413;-78
2022/02/19 10:55:51;;;;;;;1999.90;500.60;;;6.80;99.90;;;;;;6170932;23;20892;-78
2022/02/19 10:58:19;;;;;;;1999.90;687.23;;;6.80;99.90;;;;;;6157922;23;20417;-77
2022/02/19 11:00:47;;;;;;;1745.63;360.53;;;6.80;99.90;;;;;;6145634;23;20523;-77
2022/02/19 11:03:17;;;;;;;1140.97;291.17;;;6.80;99.90;;;;;;6130713;23;20433;-78
2022/02/19 11:05:45;;;;;;;1943.90;448.70;;;6.80;99.90;;;;;;6129421;23;20444;-77
2022/02/19 11:08:14;;;;;;;1103.43;226.47;;;6.80;99.90;;;;;;6105673;23;20419;-78
2022/02/19 11:10:42;;;;;;;1899.13;415.40;;;6.90;99.90;;;;;;6106075;23;20509;-78
2022/02/19 11:13:12;;;;;;;1999.90;606.17;;;7.00;99.90;;;;;;6106546;23;20445;-78
2022/02/19 11:15:41;;;;;;;1999.90;563.30;;;7.00;99.90;;;;;;6105258;23;20444;-78
2022/02/19 11:18:10;;;;;;;1944.07;514.93;;;7.00;99.90;;;;;;6105872;23;20506;-78
2022/02/19 11:20:39;;;;;;;1989.87;582.33;;;7.10;99.90;;;;;;6141484;23;20457;-77
2022/02/19 11:23:10;;;;;;;1905.17;539.50;;;7.00;99.90;;;;;;6141781;23;20489;-78
2022/02/19 11:25:39;;;;;;;1671.03;401.17;;;7.00;99.90;;;;;;6105085;23;20494;-77
2022/02/19 11:28:12;;;;;;;449.47;157.00;;;7.00;99.90;;;;;;6103990;23;20497;-77
2022/02/19 11:30:46;;;;;;;1538.50;310.87;;;7.00;99.90;;;;;;6131507;23;20941;-78
2022/02/19 11:33:17;;;;;;;1365.37;318.40;;;6.90;99.90;;;;;;6131226;23;20466;-77
2022/02/19 11:35:47;;;;;;;1793.53;458.07;;;6.90;99.90;;;;;;6104274;23;20437;-78
2022/02/19 11:38:22;;;;;;;1999.90;699.60;;;6.90;99.90;;;;;;6105825;23;20417;-78
2022/02/19 11:40:54;;;;;;;1999.90;603.37;;;7.00;99.90;;;;;;6132349;23;20429;-78
2022/02/19 11:43:38;;;;;;;1999.90;617.23;;;7.00;99.90;;;;;;6105200;23;20405;-77
2022/02/19 11:46:30;;;;;;;1999.90;763.43;;;7.00;99.90;;;;;;6140067;23;20387;-78
2022/02/19 11:49:17;;;;;;;1973.23;510.13;;;7.00;99.90;;;;;;6103229;23;20437;-77
2022/02/19 11:51:45;;;;;;;1999.90;528.03;;;7.10;99.90;;;;;;6102821;23;20540;-77
2022/02/19 11:54:35;;;;;;;1999.90;590.13;;;7.10;99.90;;;;;;6102716;23;20413;-77
2022/02/19 11:57:14;;;;;;;1809.17;444.37;;;7.10;99.90;;;;;;6138500;23;20488;-78
2022/02/19 11:59:45;;;;;;;1049.30;278.77;;;7.10;99.90;;;;;;6107023;23;20445;-78
2022/02/19 12:02:17;;;;;;;1353.70;296.43;;;7.10;99.90;;;;;;6142007;23;20509;-78
2022/02/19 12:05:18;;;;;;;307.17;86.63;;;7.10;99.90;;;;;;6105795;23;20754;-78
2022/02/19 12:07:58;;;;;;;439.20;115.50;;;7.00;99.90;;;;;;6104812;23;20413;-78
2022/02/19 12:10:36;;;;;;;445.03;81.47;;;6.90;99.90;;;;;;6104942;23;20444;-77
2022/02/19 12:13:09;;;;;;;304.93;70.00;;;6.80;99.90;;;;;;6105635;23;20428;-78
2022/02/19 12:15:40;;;;;;;246.93;46.93;;;6.80;99.90;;;;;;6104144;23;20409;-78
2022/02/19 12:18:11;;;;;;;310.47;62.20;;;6.70;99.90;;;;;;6103321;23;20498;-77
2022/02/19 12:20:41;;;;;;;360.57;83.87;;;6.70;99.90;;;;;;6139307;23;20460;-77
2022/02/19 12:23:11;;;;;;;333.20;66.13;;;6.80;99.90;;;;;;6102592;23;20866;-77
2022/02/19 12:26:10;;;;;;;223.37;42.20;;;6.80;99.90;;;;;;6102408;23;20982;-77
2022/02/19 12:28:40;;;;;;;585.43;74.60;;;6.80;99.90;;;;;;6104581;23;20420;-77
2022/02/19 12:31:24;;;;;;;117.33;30.83;;;6.80;99.90;;;;;;6139458;23;20510;-77
2022/02/19 12:33:53;;;;;;;163.20;47.83;;;6.80;99.90;;;;;;6103576;23;20405;-78
2022/02/19 12:36:22;;;;;;;219.00;63.93;;;6.80;99.90;;;;;;6102089;23;20442;-77
2022/02/19 12:38:54;;;;;;;455.10;112.20;;;6.80;99.90;;;;;;6129599;23;20420;-77
2022/02/19 12:41:24;;;;;;;282.37;71.80;;;6.80;99.90;;;;;;6103915;23;20447;-77
2022/02/19 12:44:10;;;;;;;280.80;76.53;;;6.80;99.90;;;;;;6101373;23;20526;-77
2022/02/19 12:46:40;;;;;;;128.43;26.70;;;6.70;99.90;;;;;;6101657;23;20445;-77